TRI369 YMML-YMHB
Flight info
| Callsign | TRI369 |
|---|---|
| Flight time | N/A |
| Altitude | 29000 |
| Route | SUNTI4/34 SUNTI H169 IRSOM V33 TASUM |
| Aircraft | RJ70/M-SDFGHIRWXY/LB1 |
Departure
| Time | N/A |
|---|---|
| Airport | Melbourne Airport (YMML) |
Arrival
| Time | 2026-05-01 12:52 |
|---|---|
| Airport | Hobart International Airport (YMHB) |
| Time | Latitude | Longitude | Altitude | Speed | Heading |
|---|---|---|---|---|---|
| 2026-05-01 12:16 | -39.80618 | 145.79508 | 29226 ft | 468 kts | 161° |
| 2026-05-01 12:16 | -39.83700 | 145.80897 | 29227 ft | 469 kts | 161° |
| 2026-05-01 12:17 | -39.89810 | 145.83718 | 29225 ft | 469 kts | 160° |
| 2026-05-01 12:17 | -39.95973 | 145.86529 | 29230 ft | 469 kts | 161° |
| 2026-05-01 12:18 | -40.02128 | 145.89363 | 29233 ft | 469 kts | 160° |
| 2026-05-01 12:18 | -40.08282 | 145.92238 | 29230 ft | 470 kts | 161° |
| 2026-05-01 12:19 | -40.14448 | 145.95085 | 29233 ft | 470 kts | 160° |
| 2026-05-01 12:19 | -40.20611 | 145.97961 | 29228 ft | 470 kts | 161° |
| 2026-05-01 12:20 | -40.26777 | 146.00823 | 29234 ft | 470 kts | 160° |
| 2026-05-01 12:20 | -40.32896 | 146.03701 | 29232 ft | 470 kts | 161° |
| 2026-05-01 12:21 | -40.39020 | 146.06550 | 29233 ft | 471 kts | 160° |
| 2026-05-01 12:21 | -40.45183 | 146.09445 | 29235 ft | 471 kts | 161° |
| 2026-05-01 12:22 | -40.51084 | 146.12195 | 29237 ft | 471 kts | 161° |
| 2026-05-01 12:22 | -40.57257 | 146.15131 | 29241 ft | 471 kts | 161° |
| 2026-05-01 12:23 | -40.63435 | 146.18015 | 29238 ft | 471 kts | 161° |
| 2026-05-01 12:23 | -40.69604 | 146.20951 | 29246 ft | 471 kts | 161° |
| 2026-05-01 12:24 | -40.75786 | 146.23864 | 29246 ft | 471 kts | 161° |
| 2026-05-01 12:24 | -40.81969 | 146.26794 | 29248 ft | 472 kts | 161° |
| 2026-05-01 12:25 | -40.91192 | 146.31202 | 29254 ft | 472 kts | 161° |
| 2026-05-01 12:26 | -40.97371 | 146.34138 | 29258 ft | 472 kts | 161° |
| 2026-05-01 12:26 | -41.06644 | 146.38566 | 29263 ft | 472 kts | 161° |
| 2026-05-01 12:27 | -41.15901 | 146.43021 | 29273 ft | 472 kts | 160° |
| 2026-05-01 12:28 | -41.24875 | 146.48322 | 29280 ft | 472 kts | 155° |
| 2026-05-01 12:29 | -41.33736 | 146.54045 | 29287 ft | 472 kts | 155° |
| 2026-05-01 12:29 | -41.42631 | 146.59709 | 29287 ft | 472 kts | 155° |
| 2026-05-01 12:30 | -41.51494 | 146.65344 | 29291 ft | 472 kts | 155° |
| 2026-05-01 12:31 | -41.57424 | 146.69112 | 29290 ft | 472 kts | 155° |
| 2026-05-01 12:31 | -41.63367 | 146.72889 | 29288 ft | 472 kts | 155° |
| 2026-05-01 12:32 | -41.69301 | 146.76659 | 29285 ft | 472 kts | 155° |
| 2026-05-01 12:32 | -41.78172 | 146.82428 | 29280 ft | 472 kts | 155° |
| 2026-05-01 12:33 | -41.84053 | 146.86215 | 29287 ft | 472 kts | 155° |
| 2026-05-01 12:33 | -41.86975 | 146.88135 | 29281 ft | 458 kts | 155° |
| 2026-05-01 12:33 | -41.89780 | 146.89992 | 28828 ft | 445 kts | 155° |
| 2026-05-01 12:34 | -41.92557 | 146.91815 | 28024 ft | 444 kts | 155° |
| 2026-05-01 12:34 | -41.95339 | 146.93611 | 27242 ft | 442 kts | 155° |
| 2026-05-01 12:34 | -41.98094 | 146.95401 | 26502 ft | 439 kts | 155° |
| 2026-05-01 12:34 | -42.00836 | 146.97177 | 25779 ft | 431 kts | 155° |
| 2026-05-01 12:35 | -42.03494 | 146.98890 | 25067 ft | 424 kts | 154° |
| 2026-05-01 12:35 | -42.06145 | 147.00621 | 24376 ft | 422 kts | 154° |
| 2026-05-01 12:35 | -42.08789 | 147.02355 | 23665 ft | 421 kts | 154° |
| 2026-05-01 12:35 | -42.11420 | 147.04076 | 22880 ft | 419 kts | 154° |
| 2026-05-01 12:36 | -42.14009 | 147.05778 | 22098 ft | 418 kts | 153° |
| 2026-05-01 12:36 | -42.16552 | 147.07666 | 21336 ft | 416 kts | 147° |
| 2026-05-01 12:36 | -42.18901 | 147.09936 | 20594 ft | 414 kts | 140° |
| 2026-05-01 12:36 | -42.21090 | 147.12436 | 19870 ft | 412 kts | 137° |
| 2026-05-01 12:37 | -42.23198 | 147.15035 | 19179 ft | 410 kts | 136° |
| 2026-05-01 12:37 | -42.25279 | 147.17665 | 18460 ft | 409 kts | 135° |
| 2026-05-01 12:37 | -42.27340 | 147.20295 | 17666 ft | 407 kts | 135° |
| 2026-05-01 12:37 | -42.29392 | 147.22919 | 16883 ft | 404 kts | 136° |
| 2026-05-01 12:38 | -42.31496 | 147.25353 | 16150 ft | 402 kts | 142° |
| 2026-05-01 12:38 | -42.33754 | 147.27465 | 15424 ft | 378 kts | 147° |
| 2026-05-01 12:38 | -42.35939 | 147.29221 | 14702 ft | 357 kts | 149° |
| 2026-05-01 12:38 | -42.38109 | 147.30849 | 14083 ft | 356 kts | 150° |
| 2026-05-01 12:39 | -42.40302 | 147.32451 | 13455 ft | 358 kts | 151° |
| 2026-05-01 12:39 | -42.42492 | 147.34043 | 12859 ft | 357 kts | 151° |
| 2026-05-01 12:39 | -42.44669 | 147.35630 | 12287 ft | 356 kts | 151° |
| 2026-05-01 12:39 | -42.46850 | 147.37231 | 11713 ft | 354 kts | 151° |
| 2026-05-01 12:40 | -42.48892 | 147.38745 | 11424 ft | 316 kts | 151° |
| 2026-05-01 12:40 | -42.50744 | 147.40126 | 11269 ft | 303 kts | 151° |
| 2026-05-01 12:40 | -42.52595 | 147.41514 | 10882 ft | 307 kts | 152° |
| 2026-05-01 12:40 | -42.54497 | 147.42953 | 10464 ft | 310 kts | 151° |
| 2026-05-01 12:41 | -42.56383 | 147.44390 | 10063 ft | 311 kts | 152° |
| 2026-05-01 12:41 | -42.58246 | 147.45820 | 9626 ft | 312 kts | 151° |
| 2026-05-01 12:41 | -42.60065 | 147.47441 | 9194 ft | 313 kts | 143° |
| 2026-05-01 12:41 | -42.61774 | 147.49290 | 8765 ft | 314 kts | 141° |
| 2026-05-01 12:42 | -42.63447 | 147.51194 | 8418 ft | 313 kts | 140° |
| 2026-05-01 12:42 | -42.65094 | 147.53105 | 8192 ft | 308 kts | 140° |
| 2026-05-01 12:42 | -42.66161 | 147.54351 | 8056 ft | 304 kts | 140° |
| 2026-05-01 12:42 | -42.68293 | 147.56849 | 7705 ft | 301 kts | 140° |
| 2026-05-01 12:43 | -42.69345 | 147.58076 | 7503 ft | 301 kts | 140° |
| 2026-05-01 12:43 | -42.70942 | 147.59918 | 7221 ft | 301 kts | 140° |
| 2026-05-01 12:43 | -42.72544 | 147.61757 | 6956 ft | 301 kts | 140° |
| 2026-05-01 12:43 | -42.74142 | 147.63592 | 6673 ft | 301 kts | 140° |
| 2026-05-01 12:44 | -42.75743 | 147.65437 | 6315 ft | 299 kts | 140° |
| 2026-05-01 12:44 | -42.77327 | 147.67246 | 6013 ft | 296 kts | 140° |
| 2026-05-01 12:44 | -42.80457 | 147.70811 | 5394 ft | 294 kts | 140° |
| 2026-05-01 12:45 | -42.83586 | 147.74347 | 4802 ft | 289 kts | 140° |
| 2026-05-01 12:45 | -42.85103 | 147.75890 | 4492 ft | 258 kts | 157° |
| 2026-05-01 12:45 | -42.86758 | 147.76255 | 4208 ft | 230 kts | 193° |
| 2026-05-01 12:46 | -42.88249 | 147.75780 | 4054 ft | 212 kts | 205° |
| 2026-05-01 12:46 | -42.89614 | 147.75095 | 4023 ft | 205 kts | 211° |
| 2026-05-01 12:46 | -42.90897 | 147.74303 | 4067 ft | 202 kts | 213° |
| 2026-05-01 12:46 | -42.92076 | 147.73319 | 4016 ft | 197 kts | 234° |
| 2026-05-01 12:47 | -42.92581 | 147.71709 | 3763 ft | 180 kts | 268° |
| 2026-05-01 12:47 | -42.92743 | 147.70073 | 3482 ft | 169 kts | 271° |
| 2026-05-01 12:47 | -42.92839 | 147.68506 | 3161 ft | 162 kts | 275° |
| 2026-05-01 12:47 | -42.92869 | 147.66996 | 2800 ft | 156 kts | 277° |
| 2026-05-01 12:48 | -42.92859 | 147.65533 | 2441 ft | 153 kts | 278° |
| 2026-05-01 12:48 | -42.92825 | 147.64129 | 2232 ft | 143 kts | 285° |
| 2026-05-01 12:48 | -42.92321 | 147.63067 | 2023 ft | 133 kts | 317° |
| 2026-05-01 12:48 | -42.91680 | 147.62139 | 1841 ft | 136 kts | 316° |
| 2026-05-01 12:49 | -42.91017 | 147.61201 | 1649 ft | 139 kts | 317° |
| 2026-05-01 12:49 | -42.90331 | 147.60258 | 1475 ft | 140 kts | 318° |
| 2026-05-01 12:49 | -42.89650 | 147.59329 | 1298 ft | 140 kts | 319° |
| 2026-05-01 12:49 | -42.88943 | 147.58376 | 1119 ft | 143 kts | 319° |
| 2026-05-01 12:50 | -42.88269 | 147.57476 | 991 ft | 130 kts | 318° |
| 2026-05-01 12:50 | -42.87624 | 147.56602 | 851 ft | 132 kts | 318° |
| 2026-05-01 12:50 | -42.86987 | 147.55735 | 679 ft | 124 kts | 317° |
| 2026-05-01 12:50 | -42.86408 | 147.54952 | 470 ft | 115 kts | 315° |
| 2026-05-01 12:51 | -42.85844 | 147.54190 | 296 ft | 113 kts | 316° |
| 2026-05-01 12:51 | -42.85298 | 147.53445 | 139 ft | 110 kts | 315° |
| 2026-05-01 12:51 | -42.84233 | 147.52024 | 28 ft | 106 kts | 314° |
| 2026-05-01 12:52 | -42.83745 | 147.51356 | 24 ft | 80 kts | 314° |
| 2026-05-01 12:52 | -42.83340 | 147.50613 | 20 ft | 13 kts | 227° |
| 2026-05-01 12:52 | -42.83353 | 147.50595 | 21 ft | 0 kts | 222° |
| 2026-05-01 12:53 | -42.83354 | 147.50594 | 21 ft | 1 kts | 222° |
| 2026-05-01 12:53 | -42.83371 | 147.50573 | 21 ft | 6 kts | 221° |
| 2026-05-01 12:54 | -42.83419 | 147.50556 | 21 ft | 9 kts | 158° |
| 2026-05-01 12:54 | -42.83533 | 147.50690 | 26 ft | 12 kts | 156° |
| 2026-05-01 12:54 | -42.83586 | 147.50672 | 23 ft | 10 kts | 224° |
| 2026-05-01 12:55 | -42.83616 | 147.50553 | 21 ft | 6 kts | 222° |
| 2026-05-01 12:55 | -42.83633 | 147.50538 | 21 ft | 0 kts | 195° |
| 2026-05-01 12:55 | -42.83634 | 147.50538 | 21 ft | 0 kts | 194° |